sensor_id;sensor_type;location;lat;lon;timestamp;pressure;altitude;pressure_sealevel;temperature;humidity
73151;BME280;61354;50.758;6.106;2023-02-12T00:02:24;101379.63;;;5.81;100.00
73151;BME280;61354;50.758;6.106;2023-02-12T00:04:51;101387.34;;;5.79;100.00
73151;BME280;61354;50.758;6.106;2023-02-12T00:07:16;101382.63;;;5.74;100.00
73151;BME280;61354;50.758;6.106;2023-02-12T00:09:42;101386.22;;;5.74;100.00
73151;BME280;61354;50.758;6.106;2023-02-12T00:12:08;101373.25;;;5.75;100.00
73151;BME280;61354;50.758;6.106;2023-02-12T00:14:36;101384.84;;;5.77;100.00
73151;BME280;61354;50.758;6.106;2023-02-12T00:17:01;101383.19;;;5.76;100.00
73151;BME280;61354;50.758;6.106;2023-02-12T00:19:28;101375.19;;;5.74;100.00
73151;BME280;61354;50.758;6.106;2023-02-12T00:21:53;101381.81;;;5.73;100.00
73151;BME280;61354;50.758;6.106;2023-02-12T00:24:19;101386.22;;;5.74;100.00
73151;BME280;61354;50.758;6.106;2023-02-12T00:26:44;101383.47;;;5.74;100.00
73151;BME280;61354;50.758;6.106;2023-02-12T00:29:12;101380.97;;;5.73;100.00
73151;BME280;61354;50.758;6.106;2023-02-12T00:31:38;101386.22;;;5.74;100.00
73151;BME280;61354;50.758;6.106;2023-02-12T00:34:03;101375.19;;;5.74;100.00
73151;BME280;61354;50.758;6.106;2023-02-12T00:36:31;101386.22;;;5.74;100.00
73151;BME280;61354;50.758;6.106;2023-02-12T00:38:58;101383.47;;;5.74;100.00
73151;BME280;61354;50.758;6.106;2023-02-12T00:41:25;101384.56;;;5.73;100.00
73151;BME280;61354;50.758;6.106;2023-02-12T00:43:51;101385.91;;;5.71;100.00
73151;BME280;61354;50.758;6.106;2023-02-12T00:46:17;101381.78;;;5.68;100.00
73151;BME280;61354;50.758;6.106;2023-02-12T00:48:43;101381.22;;;5.71;100.00
73151;BME280;61354;50.758;6.106;2023-02-12T00:51:09;101384.56;;;5.68;100.00
73151;BME280;61354;50.758;6.106;2023-02-12T00:53:35;101382.88;;;5.62;100.00
73151;BME280;61354;50.758;6.106;2023-02-12T00:56:01;101381.22;;;5.61;100.00
73151;BME280;61354;50.758;6.106;2023-02-12T00:58:27;101379.00;;;5.63;100.00
73151;BME280;61354;50.758;6.106;2023-02-12T01:00:53;101391.16;;;5.67;100.00
73151;BME280;61354;50.758;6.106;2023-02-12T01:03:19;101382.03;;;5.67;100.00
73151;BME280;61354;50.758;6.106;2023-02-12T01:05:45;101383.44;;;5.69;100.00
73151;BME280;61354;50.758;6.106;2023-02-12T01:08:13;101387.31;;;5.68;100.00
73151;BME280;61354;50.758;6.106;2023-02-12T01:10:39;101392.81;;;5.68;100.00
73151;BME280;61354;50.758;6.106;2023-02-12T01:13:04;101389.50;;;5.66;100.00
73151;BME280;61354;50.758;6.106;2023-02-12T01:15:30;101381.50;;;5.65;100.00
73151;BME280;61354;50.758;6.106;2023-02-12T01:17:56;101371.84;;;5.67;100.00
73151;BME280;61354;50.758;6.106;2023-02-12T01:20:23;101376.28;;;5.68;100.00
73151;BME280;61354;50.758;6.106;2023-02-12T01:22:49;101368.56;;;5.65;100.00
73151;BME280;61354;50.758;6.106;2023-02-12T01:25:15;101376.25;;;5.63;100.00
73151;BME280;61354;50.758;6.106;2023-02-12T01:27:41;101375.69;;;5.61;100.00
73151;BME280;61354;50.758;6.106;2023-02-12T01:30:09;101379.56;;;5.60;100.00
73151;BME280;61354;50.758;6.106;2023-02-12T01:32:35;101375.69;;;5.61;100.00
73151;BME280;61354;50.758;6.106;2023-02-12T01:35:01;101369.63;;;5.59;100.00
73151;BME280;61354;50.758;6.106;2023-02-12T01:37:27;101371.84;;;5.62;100.00
73151;BME280;61354;50.758;6.106;2023-02-12T01:39:52;101368.53;;;5.60;100.00
73151;BME280;61354;50.758;6.106;2023-02-12T01:42:18;101366.31;;;5.62;100.00
73151;BME280;61354;50.758;6.106;2023-02-12T01:47:31;101372.13;;;5.66;100.00
73151;BME280;61354;50.758;6.106;2023-02-12T01:49:56;101364.16;;;5.64;100.00
73151;BME280;61354;50.758;6.106;2023-02-12T01:52:26;101366.63;;;5.66;100.00
73151;BME280;61354;50.758;6.106;2023-02-12T01:54:55;101360.00;;;5.62;100.00
73151;BME280;61354;50.758;6.106;2023-02-12T01:57:25;101355.31;;;5.62;100.00
73151;BME280;61354;50.758;6.106;2023-02-12T01:59:53;101360.28;;;5.60;100.00
73151;BME280;61354;50.758;6.106;2023-02-12T02:02:22;101356.13;;;5.58;100.00
73151;BME280;61354;50.758;6.106;2023-02-12T02:04:56;101359.16;;;5.56;100.00
73151;BME280;61354;50.758;6.106;2023-02-12T02:07:22;101358.59;;;5.59;100.00
73151;BME280;61354;50.758;6.106;2023-02-12T02:09:48;101353.66;;;5.61;100.00
73151;BME280;61354;50.758;6.106;2023-02-12T02:12:14;101361.09;;;5.61;100.00
73151;BME280;61354;50.758;6.106;2023-02-12T02:14:59;101361.09;;;5.61;100.00
73151;BME280;61354;50.758;6.106;2023-02-12T02:20:41;101355.84;;;5.59;100.00
73151;BME280;61354;50.758;6.106;2023-02-12T02:23:29;101354.47;;;5.62;100.00
73151;BME280;61354;50.758;6.106;2023-02-12T02:37:22;101351.72;;;5.57;100.00
73151;BME280;61354;50.758;6.106;2023-02-12T02:39:58;101360.22;;;5.55;100.00
73151;BME280;61354;50.758;6.106;2023-02-12T02:42:32;101359.16;;;5.56;100.00
73151;BME280;61354;50.758;6.106;2023-02-12T02:45:07;101357.47;;;5.55;100.00
73151;BME280;61354;50.758;6.106;2023-02-12T02:47:48;101355.53;;;5.56;100.00
73151;BME280;61354;50.758;6.106;2023-02-12T02:50:17;101349.19;;;5.55;100.00
73151;BME280;61354;50.758;6.106;2023-02-12T02:52:49;101349.19;;;5.55;100.00
73151;BME280;61354;50.758;6.106;2023-02-12T02:55:19;101345.38;;;5.56;100.00
73151;BME280;61354;50.758;6.106;2023-02-12T02:57:53;101344.50;;;5.56;100.00
73151;BME280;61354;50.758;6.106;2023-02-12T03:00:31;101342.06;;;5.59;100.00
73151;BME280;61354;50.758;6.106;2023-02-12T03:03:06;101336.53;;;5.59;100.00
73151;BME280;61354;50.758;6.106;2023-02-12T03:05:44;101337.94;;;5.57;100.00
73151;BME280;61354;50.758;6.106;2023-02-12T03:08:15;101336.81;;;5.58;100.00
73151;BME280;61354;50.758;6.106;2023-02-12T03:10:48;101334.88;;;5.58;100.00
73151;BME280;61354;50.758;6.106;2023-02-12T03:13:29;101332.13;;;5.58;100.00
73151;BME280;61354;50.758;6.106;2023-02-12T03:16:04;101340.97;;;5.60;100.00
73151;BME280;61354;50.758;6.106;2023-02-12T03:19:07;101335.47;;;5.60;100.00
73151;BME280;61354;50.758;6.106;2023-02-12T03:21:49;101339.88;;;5.61;100.00
73151;BME280;61354;50.758;6.106;2023-02-12T03:27:04;101340.97;;;5.60;100.00
73151;BME280;61354;50.758;6.106;2023-02-12T03:29:31;101343.16;;;5.58;100.00
73151;BME280;61354;50.758;6.106;2023-02-12T03:32:13;101341.00;;;5.65;100.00
73151;BME280;61354;50.758;6.106;2023-02-12T03:37:28;101343.16;;;5.63;100.00
73151;BME280;61354;50.758;6.106;2023-02-12T03:40:31;101340.41;;;5.63;100.00
73151;BME280;61354;50.758;6.106;2023-02-12T03:43:07;101342.06;;;5.59;100.00
73151;BME280;61354;50.758;6.106;2023-02-12T03:50:56;101346.44;;;5.55;100.00
73151;BME280;61354;50.758;6.106;2023-02-12T03:53:24;101347.03;;;5.57;100.00
73151;BME280;61354;50.758;6.106;2023-02-12T03:55:52;101342.88;;;5.60;100.00
73151;BME280;61354;50.758;6.106;2023-02-12T03:58:22;101342.09;;;5.64;100.00
73151;BME280;61354;50.758;6.106;2023-02-12T04:00:51;101343.75;;;5.65;100.00
73151;BME280;61354;50.758;6.106;2023-02-12T04:03:16;101350.91;;;5.66;100.00
73151;BME280;61354;50.758;6.106;2023-02-12T04:05:42;101335.47;;;5.65;100.00
73151;BME280;61354;50.758;6.106;2023-02-12T04:08:10;101342.09;;;5.64;100.00
73151;BME280;61354;50.758;6.106;2023-02-12T04:11:00;101344.84;;;5.64;100.00
73151;BME280;61354;50.758;6.106;2023-02-12T04:13:52;101345.69;;;5.65;100.00
73151;BME280;61354;50.758;6.106;2023-02-12T04:16:34;101343.44;;;5.62;100.00
73151;BME280;61354;50.758;6.106;2023-02-12T04:19:03;101345.38;;;5.61;100.00
73151;BME280;61354;50.758;6.106;2023-02-12T04:27:19;101359.72;;;5.63;100.00
73151;BME280;61354;50.758;6.106;2023-02-12T04:35:06;101362.16;;;5.60;100.00
73151;BME280;61354;50.758;6.106;2023-02-12T04:37:45;101364.16;;;5.64;100.00
73151;BME280;61354;50.758;6.106;2023-02-12T04:40:14;101362.75;;;5.62;100.00
73151;BME280;61354;50.758;6.106;2023-02-12T04:42:43;101370.19;;;5.61;100.00
73151;BME280;61354;50.758;6.106;2023-02-12T04:45:11;101371.28;;;5.60;100.00
73151;BME280;61354;50.758;6.106;2023-02-12T04:47:38;101367.97;;;5.63;100.00
73151;BME280;61354;50.758;6.106;2023-02-12T04:50:04;101370.19;;;5.61;100.00
73151;BME280;61354;50.758;6.106;2023-02-12T04:52:30;101371.84;;;5.62;100.00
73151;BME280;61354;50.758;6.106;2023-02-12T04:54:55;101380.69;;;5.64;100.00
73151;BME280;61354;50.758;6.106;2023-02-12T04:57:21;101364.69;;;5.61;100.00
73151;BME280;61354;50.758;6.106;2023-02-12T04:59:46;101364.66;;;5.56;100.00
73151;BME280;61354;50.758;6.106;2023-02-12T05:02:12;101359.66;;;5.48;100.00
73151;BME280;61354;50.758;6.106;2023-02-12T05:04:38;101363.56;;;5.57;100.00
73151;BME280;61354;50.758;6.106;2023-02-12T05:07:03;101367.97;;;5.58;100.00
73151;BME280;61354;50.758;6.106;2023-02-12T05:09:29;101362.44;;;5.58;100.00
73151;BME280;61354;50.758;6.106;2023-02-12T05:11:54;101362.16;;;5.55;100.00
73151;BME280;61354;50.758;6.106;2023-02-12T05:14:23;101364.09;;;5.54;100.00
73151;BME280;61354;50.758;6.106;2023-02-12T05:16:49;101362.72;;;5.52;100.00
73151;BME280;61354;50.758;6.106;2023-02-12T05:19:14;101368.50;;;5.55;100.00
73151;BME280;61354;50.758;6.106;2023-02-12T05:21:40;101370.72;;;5.58;100.00
73151;BME280;61354;50.758;6.106;2023-02-12T05:24:06;101366.03;;;5.59;100.00
73151;BME280;61354;50.758;6.106;2023-02-12T05:26:32;101364.09;;;5.59;100.00
73151;BME280;61354;50.758;6.106;2023-02-12T05:28:57;101370.72;;;5.58;100.00
73151;BME280;61354;50.758;6.106;2023-02-12T05:31:23;101366.84;;;5.59;100.00
73151;BME280;61354;50.758;6.106;2023-02-12T05:33:49;101364.38;;;5.58;100.00
73151;BME280;61354;50.758;6.106;2023-02-12T05:36:17;101359.16;;;5.56;100.00
73151;BME280;61354;50.758;6.106;2023-02-12T05:38:43;101364.09;;;5.54;100.00
73151;BME280;61354;50.758;6.106;2023-02-12T05:41:18;101370.19;;;5.56;100.00
73151;BME280;61354;50.758;6.106;2023-02-12T05:43:44;101369.59;;;5.54;100.00
73151;BME280;61354;50.758;6.106;2023-02-12T05:46:11;101364.91;;;5.55;100.00
73151;BME280;61354;50.758;6.106;2023-02-12T05:48:37;101369.31;;;5.51;100.00
73151;BME280;61354;50.758;6.106;2023-02-12T05:51:05;101374.81;;;5.51;100.00
73151;BME280;61354;50.758;6.106;2023-02-12T05:53:32;101371.81;;;5.52;100.00
73151;BME280;61354;50.758;6.106;2023-02-12T05:56:20;101377.34;;;5.57;100.00
73151;BME280;61354;50.758;6.106;2023-02-12T05:58:50;101377.34;;;5.57;100.00
73151;BME280;61354;50.758;6.106;2023-02-12T06:01:19;101369.59;;;5.49;100.00
73151;BME280;61354;50.758;6.106;2023-02-12T06:03:45;101372.34;;;5.49;100.00
73151;BME280;61354;50.758;6.106;2023-02-12T06:06:11;101373.97;;;5.40;100.00
73151;BME280;61354;50.758;6.106;2023-02-12T06:08:37;101375.38;;;5.47;100.00
73151;BME280;61354;50.758;6.106;2023-02-12T06:11:05;101384.19;;;5.49;100.00
73151;BME280;61354;50.758;6.106;2023-02-12T06:13:32;101388.34;;;5.52;100.00
73151;BME280;61354;50.758;6.106;2023-02-12T06:15:58;101382.78;;;5.47;100.00
73151;BME280;61354;50.758;6.106;2023-02-12T06:18:24;101380.91;;;5.53;100.00
73151;BME280;61354;50.758;6.106;2023-02-12T06:20:50;101388.63;;;5.56;100.00
73151;BME280;61354;50.758;6.106;2023-02-12T06:23:19;101385.84;;;5.56;100.00
73151;BME280;61354;50.758;6.106;2023-02-12T06:25:46;101386.97;;;5.55;100.00
73151;BME280;61354;50.758;6.106;2023-02-12T06:28:12;101387.78;;;5.55;100.00
73151;BME280;61354;50.758;6.106;2023-02-12T06:30:38;101386.97;;;5.55;100.00
73151;BME280;61354;50.758;6.106;2023-02-12T06:33:03;101386.72;;;5.56;100.00
73151;BME280;61354;50.758;6.106;2023-02-12T06:35:29;101383.66;;;5.53;100.00
73151;BME280;61354;50.758;6.106;2023-02-12T06:37:55;101390.53;;;5.55;100.00
73151;BME280;61354;50.758;6.106;2023-02-12T06:40:20;101385.84;;;5.56;100.00
73151;BME280;61354;50.758;6.106;2023-02-12T06:42:46;101381.44;;;5.55;100.00
73151;BME280;61354;50.758;6.106;2023-02-12T06:45:12;101387.78;;;5.55;100.00
73151;BME280;61354;50.758;6.106;2023-02-12T06:47:37;101394.97;;;5.56;100.00
73151;BME280;61354;50.758;6.106;2023-02-12T06:50:03;101392.78;;;5.58;100.00
73151;BME280;61354;50.758;6.106;2023-02-12T06:52:29;101394.97;;;5.56;100.00
73151;BME280;61354;50.758;6.106;2023-02-12T06:54:54;101398.81;;;5.55;100.00
73151;BME280;61354;50.758;6.106;2023-02-12T06:57:20;101405.16;;;5.56;100.00
73151;BME280;61354;50.758;6.106;2023-02-12T06:59:45;101404.31;;;5.55;100.00
73151;BME280;61354;50.758;6.106;2023-02-12T07:02:11;101415.09;;;5.57;100.00
73151;BME280;61354;50.758;6.106;2023-02-12T07:04:37;101409.28;;;5.48;100.00
73151;BME280;61354;50.758;6.106;2023-02-12T07:07:04;101401.31;;;5.57;100.00
73151;BME280;61354;50.758;6.106;2023-02-12T07:09:30;101408.19;;;5.54;100.00
73151;BME280;61354;50.758;6.106;2023-02-12T07:11:57;101402.97;;;5.58;100.00
73151;BME280;61354;50.758;6.106;2023-02-12T07:14:24;101406.81;;;5.57;100.00
73151;BME280;61354;50.758;6.106;2023-02-12T07:16:50;101415.91;;;5.52;100.00
73151;BME280;61354;50.758;6.106;2023-02-12T07:19:16;101410.91;;;5.49;100.00
73151;BME280;61354;50.758;6.106;2023-02-12T07:21:42;101421.97;;;5.54;100.00
73151;BME280;61354;50.758;6.106;2023-02-12T07:24:10;101417.56;;;5.53;100.00
73151;BME280;61354;50.758;6.106;2023-02-12T07:26:39;101422.25;;;5.53;100.00
73151;BME280;61354;50.758;6.106;2023-02-12T07:29:06;101424.19;;;5.57;100.00
73151;BME280;61354;50.758;6.106;2023-02-12T07:31:32;101425.84;;;5.58;100.00
73151;BME280;61354;50.758;6.106;2023-02-12T07:33:59;101429.69;;;5.57;100.00
73151;BME280;61354;50.758;6.106;2023-02-12T07:36:26;101433.56;;;5.56;100.00
73151;BME280;61354;50.758;6.106;2023-02-12T07:38:53;101433.00;;;5.59;100.00
73151;BME280;61354;50.758;6.106;2023-02-12T07:41:21;101437.97;;;5.62;100.00
73151;BME280;61354;50.758;6.106;2023-02-12T07:43:47;101447.94;;;5.68;100.00
73151;BME280;61354;50.758;6.106;2023-02-12T07:46:20;101444.09;;;5.69;100.00
73151;BME280;61354;50.758;6.106;2023-02-12T07:48:46;101440.75;;;5.67;100.00
73151;BME280;61354;50.758;6.106;2023-02-12T07:51:14;101446.31;;;5.72;100.00
73151;BME280;61354;50.758;6.106;2023-02-12T07:53:40;101439.94;;;5.67;100.00
73151;BME280;61354;50.758;6.106;2023-02-12T07:56:11;101436.94;;;5.68;100.00
73151;BME280;61354;50.758;6.106;2023-02-12T07:58:38;101442.47;;;5.73;100.00
73151;BME280;61354;50.758;6.106;2023-02-12T08:01:17;101438.31;;;5.76;100.00
73151;BME280;61354;50.758;6.106;2023-02-12T08:03:45;101446.63;;;5.81;100.00
73151;BME280;61354;50.758;6.106;2023-02-12T08:06:19;101448.50;;;5.76;100.00
73151;BME280;61354;50.758;6.106;2023-02-12T08:08:46;101446.84;;;5.64;100.00
73151;BME280;61354;50.758;6.106;2023-02-12T08:11:13;101443.47;;;5.57;100.00
73151;BME280;61354;50.758;6.106;2023-02-12T08:13:39;101445.75;;;5.76;100.00
73151;BME280;61354;50.758;6.106;2023-02-12T08:16:07;101449.63;;;5.80;100.00
73151;BME280;61354;50.758;6.106;2023-02-12T08:18:34;101445.81;;;5.81;100.00
73151;BME280;61354;50.758;6.106;2023-02-12T08:23:47;101438.88;;;5.73;100.00
73151;BME280;61354;50.758;6.106;2023-02-12T08:26:24;101440.84;;;5.88;100.00
73151;BME280;61354;50.758;6.106;2023-02-12T08:29:03;101442.50;;;5.89;100.00
73151;BME280;61354;50.758;6.106;2023-02-12T08:31:34;101444.22;;;5.95;100.00
73151;BME280;61354;50.758;6.106;2023-02-12T08:34:00;101445.31;;;5.94;100.00
73151;BME280;61354;50.758;6.106;2023-02-12T08:36:28;101441.66;;;5.88;100.00
73151;BME280;61354;50.758;6.106;2023-02-12T08:38:56;101441.47;;;5.95;100.00
73151;BME280;61354;50.758;6.106;2023-02-12T08:41:23;101446.41;;;5.93;100.00
73151;BME280;61354;50.758;6.106;2023-02-12T08:43:52;101447.28;;;5.98;100.00
73151;BME280;61354;50.758;6.106;2023-02-12T08:46:18;101445.88;;;6.01;100.00
73151;BME280;61354;50.758;6.106;2023-02-12T08:48:45;101441.78;;;6.09;100.00
73151;BME280;61354;50.758;6.106;2023-02-12T08:51:19;101446.22;;;6.10;100.00
73151;BME280;61354;50.758;6.106;2023-02-12T08:53:47;101450.63;;;6.16;100.00
73151;BME280;61354;50.758;6.106;2023-02-12T08:56:14;101450.34;;;6.17;100.00
73151;BME280;61354;50.758;6.106;2023-02-12T08:58:41;101449.81;;;6.20;100.00
73151;BME280;61354;50.758;6.106;2023-02-12T09:01:12;101450.38;;;6.28;100.00
73151;BME280;61354;50.758;6.106;2023-02-12T09:03:41;101455.91;;;6.33;100.00
73151;BME280;61354;50.758;6.106;2023-02-12T09:06:08;101448.16;;;6.30;100.00
73151;BME280;61354;50.758;6.106;2023-02-12T09:08:34;101453.16;;;6.33;100.00
73151;BME280;61354;50.758;6.106;2023-02-12T09:11:04;101448.75;;;6.37;100.00
73151;BME280;61354;50.758;6.106;2023-02-12T09:13:30;101451.22;;;6.38;100.00
73151;BME280;61354;50.758;6.106;2023-02-12T09:15:56;101450.66;;;6.31;100.00
73151;BME280;61354;50.758;6.106;2023-02-12T09:18:21;101451.47;;;6.21;100.00
73151;BME280;61354;50.758;6.106;2023-02-12T09:20:47;101458.09;;;6.20;100.00
73151;BME280;61354;50.758;6.106;2023-02-12T09:23:13;101455.06;;;6.27;100.00
73151;BME280;61354;50.758;6.106;2023-02-12T09:25:43;101457.00;;;6.27;100.00
73151;BME280;61354;50.758;6.106;2023-02-12T09:28:11;101458.66;;;6.33;100.00
73151;BME280;61354;50.758;6.106;2023-02-12T09:30:37;101458.13;;;6.41;100.00
73151;BME280;61354;50.758;6.106;2023-02-12T09:33:04;101463.66;;;6.46;100.00
73151;BME280;61354;50.758;6.106;2023-02-12T09:35:30;101457.59;;;6.49;100.00
73151;BME280;61354;50.758;6.106;2023-02-12T09:37:55;101456.78;;;6.48;100.00
73151;BME280;61354;50.758;6.106;2023-02-12T09:42:58;101453.75;;;6.60;100.00
73151;BME280;61354;50.758;6.106;2023-02-12T09:45:31;101449.34;;;6.64;100.00
73151;BME280;61354;50.758;6.106;2023-02-12T09:50:56;101459.28;;;6.65;100.00
73151;BME280;61354;50.758;6.106;2023-02-12T09:53:26;101455.41;;;6.71;100.00
73151;BME280;61354;50.758;6.106;2023-02-12T09:55:54;101466.19;;;6.78;100.00
73151;BME280;61354;50.758;6.106;2023-02-12T09:58:32;101463.69;;;6.82;100.00
73151;BME280;61354;50.758;6.106;2023-02-12T10:01:03;101463.13;;;6.80;100.00
73151;BME280;61354;50.758;6.106;2023-02-12T10:03:34;101459.00;;;6.77;100.00
73151;BME280;61354;50.758;6.106;2023-02-12T10:06:04;101465.34;;;6.83;100.00
73151;BME280;61354;50.758;6.106;2023-02-12T10:28:01;101467.00;;;7.04;97.11
73151;BME280;61354;50.758;6.106;2023-02-12T10:33:13;101462.88;;;7.07;95.88
73151;BME280;61354;50.758;6.106;2023-02-12T10:35:50;101464.25;;;7.14;96.27
73151;BME280;61354;50.758;6.106;2023-02-12T10:38:26;101467.81;;;7.20;96.44
73151;BME280;61354;50.758;6.106;2023-02-12T10:40:53;101465.88;;;7.26;97.46
73151;BME280;61354;50.758;6.106;2023-02-12T10:43:26;101466.97;;;7.30;97.69
73151;BME280;61354;50.758;6.106;2023-02-12T10:45:52;101468.66;;;7.31;96.48
73151;BME280;61354;50.758;6.106;2023-02-12T10:48:30;101474.44;;;7.34;97.01
73151;BME280;61354;50.758;6.106;2023-02-12T10:53:37;101476.34;;;7.34;94.82
73151;BME280;61354;50.758;6.106;2023-02-12T10:56:21;101466.13;;;7.39;95.77
73151;BME280;61354;50.758;6.106;2023-02-12T11:03:53;101465.00;;;7.45;97.00
73151;BME280;61354;50.758;6.106;2023-02-12T11:06:25;101468.59;;;7.51;96.51
73151;BME280;61354;50.758;6.106;2023-02-12T11:08:52;101463.38;;;7.39;93.78
73151;BME280;61354;50.758;6.106;2023-02-12T11:11:29;101458.38;;;7.52;95.37
73151;BME280;61354;50.758;6.106;2023-02-12T11:14:18;101452.78;;;7.62;95.81
73151;BME280;61354;50.758;6.106;2023-02-12T11:16:56;101454.72;;;7.66;96.43
73151;BME280;61354;50.758;6.106;2023-02-12T11:19:29;101445.06;;;7.64;94.00
73151;BME280;61354;50.758;6.106;2023-02-12T11:22:13;101438.69;;;7.68;94.26
73151;BME280;61354;50.758;6.106;2023-02-12T11:24:43;101425.94;;;7.72;93.90
73151;BME280;61354;50.758;6.106;2023-02-12T11:27:19;101428.16;;;7.70;92.98
73151;BME280;61354;50.758;6.106;2023-02-12T11:29:45;101431.44;;;7.78;92.41
73151;BME280;61354;50.758;6.106;2023-02-12T11:32:19;101424.00;;;7.73;91.99
73151;BME280;61354;50.758;6.106;2023-02-12T11:35:15;101414.81;;;7.83;93.32
73151;BME280;61354;50.758;6.106;2023-02-12T11:37:44;101415.34;;;7.90;92.93
73151;BME280;61354;50.758;6.106;2023-02-12T11:40:26;101413.97;;;7.92;92.40
73151;BME280;61354;50.758;6.106;2023-02-12T11:43:01;101409.25;;;7.88;92.39
73151;BME280;61354;50.758;6.106;2023-02-12T11:45:42;101406.19;;;7.94;92.71
73151;BME280;61354;50.758;6.106;2023-02-12T11:48:19;101407.06;;;7.90;92.17
73151;BME280;61354;50.758;6.106;2023-02-12T11:50:48;101398.75;;;7.90;92.13
73151;BME280;61354;50.758;6.106;2023-02-12T11:53:28;101398.50;;;7.86;91.38
73151;BME280;61354;50.758;6.106;2023-02-12T11:55:58;101400.44;;;7.86;91.57
73151;BME280;61354;50.758;6.106;2023-02-12T11:58:26;101396.06;;;7.80;91.53
73151;BME280;61354;50.758;6.106;2023-02-12T12:01:29;101397.41;;;7.82;91.88
73151;BME280;61354;50.758;6.106;2023-02-12T12:04:13;101392.97;;;7.86;91.91
73151;BME280;61354;50.758;6.106;2023-02-12T12:06:54;101396.50;;;7.92;92.08
73151;BME280;61354;50.758;6.106;2023-02-12T12:09:45;101389.63;;;7.89;91.03
73151;BME280;61354;50.758;6.106;2023-02-12T12:12:17;101384.38;;;7.88;92.39
73151;BME280;61354;50.758;6.106;2023-02-12T12:14:59;101380.19;;;7.95;93.35
73151;BME280;61354;50.758;6.106;2023-02-12T12:17:51;101377.16;;;7.97;91.88
73151;BME280;61354;50.758;6.106;2023-02-12T12:20:51;101374.09;;;7.98;92.71
73151;BME280;61354;50.758;6.106;2023-02-12T12:23:20;101371.59;;;7.97;90.89
73151;BME280;61354;50.758;6.106;2023-02-12T12:25:55;101368.84;;;7.92;90.44
73151;BME280;61354;50.758;6.106;2023-02-12T12:28:29;101356.97;;;7.91;90.32
73151;BME280;61354;50.758;6.106;2023-02-12T12:31:19;101364.66;;;8.00;91.01
73151;BME280;61354;50.758;6.106;2023-02-12T12:33:51;101363.31;;;7.92;90.12
73151;BME280;61354;50.758;6.106;2023-02-12T12:55:43;101341.13;;;8.02;91.36
73151;BME280;61354;50.758;6.106;2023-02-12T12:58:19;101354.16;;;8.02;90.84
73151;BME280;61354;50.758;6.106;2023-02-12T13:03:44;101345.59;;;7.98;91.28
73151;BME280;61354;50.758;6.106;2023-02-12T13:17:04;101329.50;;;8.05;91.33
73151;BME280;61354;50.758;6.106;2023-02-12T13:27:45;101322.28;;;8.04;92.38
73151;BME280;61354;50.758;6.106;2023-02-12T13:30:32;101315.94;;;8.09;92.23
73151;BME280;61354;50.758;6.106;2023-02-12T13:33:11;101316.75;;;8.04;91.99
73151;BME280;61354;50.758;6.106;2023-02-12T13:35:43;101315.63;;;8.10;91.84
73151;BME280;61354;50.758;6.106;2023-02-12T13:38:17;101305.94;;;8.13;92.45
73151;BME280;61354;50.758;6.106;2023-02-12T13:40:46;101308.16;;;8.11;91.67
73151;BME280;61354;50.758;6.106;2023-02-12T13:43:38;101307.28;;;8.15;91.85
73151;BME280;61354;50.758;6.106;2023-02-12T13:46:16;101301.75;;;8.15;91.97
73151;BME280;61354;50.758;6.106;2023-02-12T13:54:12;101300.72;;;8.06;92.08
73151;BME280;61354;50.758;6.106;2023-02-12T14:02:13;101284.06;;;8.11;91.70
73151;BME280;61354;50.758;6.106;2023-02-12T14:05:16;101292.94;;;8.08;92.51
73151;BME280;61354;50.758;6.106;2023-02-12T14:07:57;101290.16;;;8.08;92.19
73151;BME280;61354;50.758;6.106;2023-02-12T14:10:30;101288.53;;;8.07;93.31
73151;BME280;61354;50.758;6.106;2023-02-12T14:13:16;101286.06;;;8.06;92.48
73151;BME280;61354;50.758;6.106;2023-02-12T14:15:44;101290.78;;;8.05;92.81
73151;BME280;61354;50.758;6.106;2023-02-12T14:23:36;101291.28;;;8.07;93.03
73151;BME280;61354;50.758;6.106;2023-02-12T14:28:51;101284.97;;;8.02;93.29
73151;BME280;61354;50.758;6.106;2023-02-12T14:34:35;101292.47;;;8.01;93.15
73151;BME280;61354;50.758;6.106;2023-02-12T14:41:54;101296.03;;;8.02;93.71
73151;BME280;61354;50.758;6.106;2023-02-12T14:46:59;101294.16;;;7.97;93.68
73151;BME280;61354;50.758;6.106;2023-02-12T14:49:30;101291.13;;;7.93;94.06
73151;BME280;61354;50.758;6.106;2023-02-12T14:54:56;101294.16;;;7.97;93.90
73151;BME280;61354;50.758;6.106;2023-02-12T14:59:55;101294.72;;;7.94;94.27
73151;BME280;61354;50.758;6.106;2023-02-12T15:02:46;101293.09;;;7.88;93.30
73151;BME280;61354;50.758;6.106;2023-02-12T15:05:19;101303.06;;;7.89;94.03
73151;BME280;61354;50.758;6.106;2023-02-12T15:07:47;101289.84;;;7.81;93.65
73151;BME280;61354;50.758;6.106;2023-02-12T15:10:21;101291.44;;;7.87;94.58
73151;BME280;61354;50.758;6.106;2023-02-12T15:18:57;101293.13;;;7.83;94.98
73151;BME280;61354;50.758;6.106;2023-02-12T15:21:27;101294.53;;;7.80;95.01
73151;BME280;61354;50.758;6.106;2023-02-12T15:24:07;101296.75;;;7.78;95.71
73151;BME280;61354;50.758;6.106;2023-02-12T15:26:40;101294.84;;;7.73;95.48
73151;BME280;61354;50.758;6.106;2023-02-12T15:29:18;101292.31;;;7.82;95.79
73151;BME280;61354;50.758;6.106;2023-02-12T15:31:50;101291.47;;;7.82;95.92
73151;BME280;61354;50.758;6.106;2023-02-12T15:34:21;101292.88;;;7.79;96.02
73151;BME280;61354;50.758;6.106;2023-02-12T15:36:48;101290.66;;;7.81;96.29
73151;BME280;61354;50.758;6.106;2023-02-12T15:39:17;101289.56;;;7.77;95.97
73151;BME280;61354;50.758;6.106;2023-02-12T15:41:45;101289.84;;;7.81;95.83
73151;BME280;61354;50.758;6.106;2023-02-12T15:44:31;101291.22;;;7.78;96.39
73151;BME280;61354;50.758;6.106;2023-02-12T15:49:32;101278.25;;;7.73;96.28
73151;BME280;61354;50.758;6.106;2023-02-12T15:52:02;101278.25;;;7.73;97.17
73151;BME280;61354;50.758;6.106;2023-02-12T15:54:29;101275.19;;;7.75;96.67